createdAt,value
2023-05-17T00:02:59.201Z,6.75
2023-05-17T00:07:01.447Z,6.78
2023-05-17T00:11:03.761Z,6.32
2023-05-17T00:15:07.394Z,6.97
2023-05-17T00:19:09.850Z,7.10
2023-05-17T00:23:12.131Z,7.00
2023-05-17T00:27:14.428Z,6.97
2023-05-17T00:31:17.819Z,7.10
2023-05-17T00:35:20.092Z,7.07
2023-05-17T00:39:22.462Z,7.03
2023-05-17T00:43:26.224Z,6.85
2023-05-17T00:47:28.556Z,7.85
2023-05-17T00:51:31.743Z,7.32
2023-05-17T00:55:34.531Z,8.35
2023-05-17T00:59:37.674Z,9.02
2023-05-17T01:03:43.983Z,8.30
2023-05-17T01:07:53.145Z,7.60
2023-05-17T01:12:12.129Z,7.72
2023-05-17T01:16:19.396Z,7.22
2023-05-17T01:20:27.014Z,7.05
2023-05-17T01:24:39.007Z,6.82
2023-05-17T01:28:44.141Z,7.70
2023-05-17T01:32:46.643Z,6.93
2023-05-17T01:36:49.567Z,7.25
2023-05-17T01:41:36.597Z,7.15
2023-05-17T01:45:47.307Z,7.65
2023-05-17T01:49:54.584Z,6.70
2023-05-17T01:54:01.833Z,6.80
2023-05-17T01:58:08.219Z,6.60
2023-05-17T02:02:10.765Z,6.55
2023-05-17T02:06:13.120Z,6.80
2023-05-17T02:10:20.753Z,6.72
2023-05-17T02:14:24.756Z,6.97
2023-05-17T02:18:28.123Z,6.70
2023-05-17T02:22:30.483Z,6.65
2023-05-17T02:26:33.468Z,6.57
2023-05-17T02:30:35.648Z,6.80
2023-05-17T02:34:37.780Z,7.68
2023-05-17T02:38:41.020Z,8.48
2023-05-17T02:42:43.342Z,7.90
2023-05-17T02:46:46.054Z,7.05
2023-05-17T02:50:48.370Z,7.03
2023-05-17T02:54:51.805Z,7.18
2023-05-17T02:58:57.721Z,6.82
2023-05-17T03:03:00.073Z,7.85
2023-05-17T03:07:02.593Z,7.63
2023-05-17T03:11:06.030Z,7.60
2023-05-17T03:15:09.399Z,7.57
2023-05-17T03:19:12.349Z,7.95
2023-05-17T03:23:16.897Z,8.20
2023-05-17T03:27:27.374Z,8.23
2023-05-17T03:31:29.807Z,8.32
2023-05-17T03:35:32.234Z,8.50
2023-05-17T03:39:34.442Z,8.32
2023-05-17T03:43:36.632Z,9.45
2023-05-17T03:47:39.147Z,8.30
2023-05-17T03:51:41.772Z,8.75
2023-05-17T03:55:43.961Z,9.23
2023-05-17T03:59:46.831Z,9.10
2023-05-17T04:03:50.359Z,8.98
2023-05-17T04:07:54.040Z,8.80
2023-05-17T04:11:56.670Z,9.43
2023-05-17T04:15:58.798Z,8.93
2023-05-17T04:20:01.300Z,9.00
2023-05-17T04:24:03.777Z,9.57
2023-05-17T04:28:06.082Z,9.70
2023-05-17T04:32:09.346Z,9.85
2023-05-17T04:36:12.269Z,9.77
2023-05-17T04:40:15.772Z,10.15
2023-05-17T04:44:18.855Z,9.80
2023-05-17T04:48:21.415Z,10.13
2023-05-17T04:52:23.759Z,9.68
2023-05-17T04:56:27.661Z,9.95
2023-05-17T05:00:31.221Z,10.18
2023-05-17T05:04:38.513Z,11.85
2023-05-17T05:08:41.240Z,10.68
2023-05-17T05:12:46.412Z,9.48
2023-05-17T05:16:50.545Z,9.93
2023-05-17T05:20:52.776Z,9.77
2023-05-17T05:24:56.003Z,10.55
2023-05-17T05:28:58.724Z,9.82
2023-05-17T05:33:02.194Z,9.63
2023-05-17T05:37:05.101Z,8.48
2023-05-17T05:41:08.269Z,7.55
2023-05-17T05:45:12.538Z,8.25
2023-05-17T05:49:16.088Z,7.70
2023-05-17T05:53:19.916Z,7.50
2023-05-17T05:57:30.351Z,7.75
2023-05-17T06:01:32.623Z,9.40
2023-05-17T06:05:34.775Z,8.23
2023-05-17T06:09:36.917Z,8.00
2023-05-17T06:13:39.043Z,9.00
2023-05-17T06:17:41.236Z,10.40
2023-05-17T06:21:44.055Z,11.25
2023-05-17T06:25:46.635Z,11.70
2023-05-17T06:29:48.829Z,10.60
2023-05-17T06:33:51.069Z,10.05
2023-05-17T06:37:53.252Z,9.05
2023-05-17T06:41:55.488Z,9.15
2023-05-17T06:45:57.783Z,8.85
2023-05-17T06:50:00.071Z,8.95
2023-05-17T06:54:02.429Z,8.30
2023-05-17T06:58:04.682Z,8.60
2023-05-17T07:02:06.918Z,8.13
2023-05-17T07:06:09.056Z,7.60
2023-05-17T07:10:11.693Z,6.68
2023-05-17T07:14:14.146Z,7.25
2023-05-17T07:18:16.672Z,6.70
2023-05-17T07:22:19.012Z,7.30
2023-05-17T07:26:21.735Z,7.10
2023-05-17T07:30:23.842Z,7.80
2023-05-17T07:34:26.189Z,8.45
2023-05-17T07:38:28.372Z,7.40
2023-05-17T07:42:30.464Z,6.88
2023-05-17T07:46:32.542Z,6.70
2023-05-17T07:50:34.685Z,5.95
2023-05-17T07:54:39.460Z,5.15
2023-05-17T07:58:41.552Z,5.10
2023-05-17T08:02:43.738Z,5.05
2023-05-17T08:06:47.266Z,5.13
2023-05-17T08:10:49.847Z,5.50
2023-05-17T08:14:51.930Z,6.55
2023-05-17T08:18:54.254Z,6.75
2023-05-17T08:22:56.469Z,6.20
2023-05-17T08:26:58.639Z,7.10
2023-05-17T08:31:00.738Z,6.80
2023-05-17T08:35:04.217Z,7.15
2023-05-17T08:39:08.364Z,6.50
2023-05-17T08:47:26.169Z,6.45
2023-05-17T08:51:29.039Z,6.15
2023-05-17T08:55:33.263Z,6.93
2023-05-17T09:03:41.269Z,6.45
2023-05-17T09:07:43.762Z,7.00
2023-05-17T09:11:46.137Z,6.57
2023-05-17T09:15:49.607Z,6.00
2023-05-17T09:19:52.169Z,5.20
2023-05-17T09:24:05.563Z,4.85
2023-05-17T09:28:09.678Z,4.78
2023-05-17T09:32:20.793Z,5.00
2023-05-17T09:36:24.038Z,4.40
2023-05-17T09:40:26.471Z,4.93
2023-05-17T09:44:28.866Z,5.05
2023-05-17T09:48:31.039Z,4.80
2023-05-17T09:52:35.756Z,4.53
2023-05-17T09:56:38.418Z,4.80
2023-05-17T10:00:43.886Z,5.60
2023-05-17T10:04:49.492Z,5.60
2023-05-17T10:08:55.228Z,6.18
2023-05-17T10:12:59.245Z,6.13
2023-05-17T10:17:03.298Z,5.00
2023-05-17T10:21:07.898Z,6.45
2023-05-17T10:29:13.423Z,7.25
2023-05-17T10:33:17.905Z,8.02
2023-05-17T10:37:21.838Z,7.88
2023-05-17T10:41:29.050Z,7.25
2023-05-17T10:45:31.990Z,7.75
2023-05-17T10:49:37.080Z,7.88
2023-05-17T10:54:18.578Z,7.35
2023-05-17T10:58:21.522Z,7.15
2023-05-17T11:02:24.636Z,6.97
2023-05-17T11:06:27.033Z,7.18
2023-05-17T11:10:29.352Z,6.18
2023-05-17T11:14:52.205Z,6.32
2023-05-17T11:18:56.112Z,6.53
2023-05-17T11:23:05.053Z,5.68
2023-05-17T11:27:07.557Z,6.28
2023-05-17T11:31:10.418Z,5.40
2023-05-17T11:35:13.032Z,5.70
2023-05-17T11:39:17.290Z,5.43
2023-05-17T11:47:22.832Z,7.65
2023-05-17T11:51:25.945Z,4.75
2023-05-17T11:55:28.259Z,6.28
2023-05-17T11:59:38.162Z,5.20
2023-05-17T12:03:40.251Z,5.22
2023-05-17T12:07:42.481Z,4.57
2023-05-17T12:11:45.144Z,4.60
2023-05-17T12:16:17.593Z,4.85
2023-05-17T12:20:20.353Z,4.50
2023-05-17T12:24:22.542Z,4.70
2023-05-17T12:28:24.690Z,4.50
2023-05-17T12:32:27.232Z,4.25
2023-05-17T12:36:31.756Z,4.20
2023-05-17T12:40:33.978Z,4.97
2023-05-17T12:44:36.061Z,5.43
2023-05-17T12:48:39.659Z,4.72
2023-05-17T12:52:41.729Z,4.93
2023-05-17T12:56:45.030Z,4.10
2023-05-17T13:00:57.953Z,4.97
2023-05-17T13:05:13.318Z,4.82
2023-05-17T13:09:18.829Z,4.32
2023-05-17T13:13:21.288Z,4.95
2023-05-17T13:17:34.744Z,3.45
2023-05-17T13:21:36.805Z,4.20
2023-05-17T13:25:38.907Z,3.70
2023-05-17T13:29:42.805Z,3.60
2023-05-17T13:33:45.408Z,4.60
2023-05-17T13:37:47.637Z,4.20
2023-05-17T13:41:50.099Z,4.18
2023-05-17T13:45:56.829Z,4.63
2023-05-17T13:50:00.573Z,5.22
2023-05-17T13:54:04.979Z,5.35
2023-05-17T13:58:07.633Z,4.88
2023-05-17T14:02:10.407Z,3.35
2023-05-17T14:06:12.684Z,3.65
2023-05-17T14:10:15.279Z,2.60
2023-05-17T14:14:17.332Z,2.70
2023-05-17T14:18:19.542Z,2.58
2023-05-17T14:22:21.723Z,3.17
2023-05-17T14:26:23.779Z,2.00
2023-05-17T14:30:26.019Z,2.80
2023-05-17T14:34:28.212Z,2.30
2023-05-17T14:38:30.636Z,2.20
2023-05-17T14:42:32.916Z,2.03
2023-05-17T14:46:35.051Z,2.92
2023-05-17T14:50:37.231Z,3.88
2023-05-17T14:54:41.836Z,2.10
2023-05-17T14:58:43.981Z,2.08
2023-05-17T15:02:46.146Z,2.30
2023-05-17T15:06:48.541Z,5.05
2023-05-17T15:10:51.598Z,3.92
2023-05-17T15:14:53.939Z,1.92
2023-05-17T15:18:57.742Z,3.10
2023-05-17T15:23:00.021Z,2.47
2023-05-17T15:27:02.085Z,2.65
2023-05-17T15:31:11.028Z,3.20
2023-05-17T15:35:13.342Z,2.13
2023-05-17T15:39:15.622Z,1.80
2023-05-17T15:43:17.668Z,2.17
2023-05-17T15:47:20.519Z,2.00
2023-05-17T15:51:23.979Z,2.35
2023-05-17T15:55:26.048Z,2.30
2023-05-17T15:59:28.190Z,2.63
2023-05-17T16:03:30.618Z,4.47
2023-05-17T16:07:32.725Z,3.05
2023-05-17T16:11:34.817Z,3.10
2023-05-17T16:15:36.988Z,4.43
2023-05-17T16:19:39.122Z,4.45
2023-05-17T16:23:41.612Z,5.85
2023-05-17T16:27:43.677Z,4.13
2023-05-17T16:31:48.068Z,4.32
2023-05-17T16:35:50.366Z,3.88
2023-05-17T16:39:52.546Z,4.60
2023-05-17T16:43:54.608Z,4.45
2023-05-17T16:47:56.731Z,4.05
2023-05-17T16:51:58.802Z,4.63
2023-05-17T16:56:00.867Z,4.78
2023-05-17T17:00:04.053Z,5.05
2023-05-17T17:08:09.218Z,2.60
2023-05-17T17:12:23.650Z,2.28
2023-05-17T17:16:26.831Z,2.28
2023-05-17T17:20:29.208Z,2.90
2023-05-17T17:24:33.159Z,2.90
2023-05-17T17:28:35.455Z,3.60
2023-05-17T17:32:37.593Z,4.50
2023-05-17T17:36:39.941Z,4.05
2023-05-17T17:40:42.032Z,4.28
2023-05-17T17:44:44.137Z,4.53
2023-05-17T17:48:46.196Z,4.38
2023-05-17T17:52:50.603Z,4.22
2023-05-17T17:56:53.018Z,4.05
2023-05-17T18:00:55.206Z,4.13
2023-05-17T18:04:57.539Z,4.75
2023-05-17T18:08:59.717Z,4.28
2023-05-17T18:13:01.993Z,4.88
2023-05-17T18:17:04.346Z,3.80
2023-05-17T18:21:08.272Z,3.90
2023-05-17T18:25:10.856Z,3.80
2023-05-17T18:29:13.298Z,2.97
2023-05-17T18:33:15.649Z,3.47
2023-05-17T18:37:18.056Z,3.60
2023-05-17T18:41:21.006Z,3.80
2023-05-17T18:45:23.254Z,3.65
2023-05-17T18:49:26.549Z,3.92
2023-05-17T18:53:29.345Z,3.35
2023-05-17T18:57:31.506Z,3.17
2023-05-17T19:01:33.963Z,3.40
2023-05-17T19:05:38.367Z,3.33
2023-05-17T19:09:42.543Z,3.10
2023-05-17T19:13:44.908Z,2.90
2023-05-17T19:17:49.342Z,3.08
2023-05-17T19:21:52.146Z,3.03
2023-05-17T19:25:55.610Z,3.03
2023-05-17T19:29:58.581Z,3.15
2023-05-17T19:34:02.436Z,3.70
2023-05-17T19:38:06.214Z,3.00
2023-05-17T19:42:12.286Z,2.85
2023-05-17T19:46:18.779Z,2.88
2023-05-17T19:50:25.222Z,2.80
2023-05-17T19:54:32.935Z,2.97
2023-05-17T19:58:39.788Z,3.38
2023-05-17T20:02:42.265Z,2.70
2023-05-17T20:06:44.584Z,2.80
2023-05-17T20:10:47.001Z,3.00
2023-05-17T20:14:49.375Z,2.72
2023-05-17T20:18:51.960Z,3.28
2023-05-17T20:22:54.292Z,2.63
2023-05-17T20:26:59.821Z,2.60
2023-05-17T20:31:02.035Z,4.10
2023-05-17T20:35:04.922Z,3.45
2023-05-17T20:39:07.791Z,2.92
2023-05-17T20:43:10.202Z,2.63
2023-05-17T20:47:12.435Z,2.72
2023-05-17T20:51:16.247Z,2.88
2023-05-17T20:55:18.692Z,3.58
2023-05-17T20:59:23.251Z,3.10
2023-05-17T21:03:28.251Z,3.03
2023-05-17T21:07:30.748Z,3.25
2023-05-17T21:11:32.974Z,2.88
2023-05-17T21:15:36.191Z,3.60
2023-05-17T21:19:38.500Z,3.55
2023-05-17T21:23:40.823Z,3.33
2023-05-17T21:27:43.042Z,2.85
2023-05-17T21:31:45.191Z,3.03
2023-05-17T21:35:47.589Z,3.08
2023-05-17T21:39:49.967Z,3.35
2023-05-17T21:43:52.215Z,3.63
2023-05-17T21:47:54.362Z,3.35
2023-05-17T21:51:56.532Z,3.00
2023-05-17T21:56:02.763Z,3.75
2023-05-17T22:00:07.873Z,3.35
2023-05-17T22:04:10.048Z,2.90
2023-05-17T22:08:12.220Z,4.28
2023-05-17T22:12:15.002Z,3.35
2023-05-17T22:16:18.767Z,3.08
2023-05-17T22:20:23.775Z,4.38
2023-05-17T22:24:26.284Z,3.42
2023-05-17T22:28:28.690Z,3.33
2023-05-17T22:32:31.160Z,3.63
2023-05-17T22:36:34.720Z,3.75
2023-05-17T22:40:36.928Z,3.65
2023-05-17T22:44:39.026Z,3.38
2023-05-17T22:48:41.146Z,2.97
2023-05-17T22:52:43.802Z,3.10
2023-05-17T22:56:46.056Z,3.25
2023-05-17T23:00:51.149Z,3.67
2023-05-17T23:04:55.770Z,4.07
2023-05-17T23:08:57.887Z,3.40
2023-05-17T23:12:59.908Z,3.28
2023-05-17T23:17:04.290Z,3.15
2023-05-17T23:21:06.555Z,3.13
2023-05-17T23:25:09.206Z,3.83
2023-05-17T23:29:12.657Z,3.10
2023-05-17T23:33:15.411Z,2.80
2023-05-17T23:37:17.528Z,3.15
2023-05-17T23:41:21.612Z,3.10
2023-05-17T23:45:23.706Z,3.13
2023-05-17T23:49:25.786Z,3.53
2023-05-17T23:53:28.178Z,3.35
2023-05-17T23:57:30.305Z,3.40
